sensor_id;sensor_type;location;lat;lon;timestamp;pressure;altitude;pressure_sealevel;temperature;humidity
70015;BME280;57358;51.094;6.760;2023-05-08T00:01:05;101481.88;;;15.06;100.00
70015;BME280;57358;51.094;6.760;2023-05-08T00:03:33;101445.53;;;14.80;100.00
70015;BME280;57358;51.094;6.760;2023-05-08T00:06:04;101468.09;;;14.85;100.00
70015;BME280;57358;51.094;6.760;2023-05-08T00:08:30;101493.84;;;14.98;100.00
70015;BME280;57358;51.094;6.760;2023-05-08T00:10:57;101501.66;;;14.99;100.00
70015;BME280;57358;51.094;6.760;2023-05-08T00:13:23;101481.22;;;14.87;100.00
70015;BME280;57358;51.094;6.760;2023-05-08T00:15:50;101484.81;;;14.86;100.00
70015;BME280;57358;51.094;6.760;2023-05-08T00:18:16;101431.16;;;14.53;100.00
70015;BME280;57358;51.094;6.760;2023-05-08T00:20:42;101499.88;;;15.00;100.00
70015;BME280;57358;51.094;6.760;2023-05-08T00:23:09;101500.66;;;15.02;100.00
70015;BME280;57358;51.094;6.760;2023-05-08T00:25:35;101411.22;;;14.48;100.00
70015;BME280;57358;51.094;6.760;2023-05-08T00:28:01;101410.63;;;14.43;100.00
70015;BME280;57358;51.094;6.760;2023-05-08T00:30:28;101466.69;;;14.64;100.00
70015;BME280;57358;51.094;6.760;2023-05-08T00:32:54;101504.66;;;14.93;100.00
70015;BME280;57358;51.094;6.760;2023-05-08T00:35:21;101487.97;;;14.76;100.00
70015;BME280;57358;51.094;6.760;2023-05-08T00:37:47;101504.84;;;14.90;100.00
70015;BME280;57358;51.094;6.760;2023-05-08T00:40:14;101510.28;;;14.87;100.00
70015;BME280;57358;51.094;6.760;2023-05-08T00:42:41;101503.41;;;14.84;100.00
70015;BME280;57358;51.094;6.760;2023-05-08T00:45:07;101504.16;;;14.86;100.00
70015;BME280;57358;51.094;6.760;2023-05-08T00:47:34;101486.72;;;14.68;100.00
70015;BME280;57358;51.094;6.760;2023-05-08T00:50:01;101450.91;;;14.46;100.00
70015;BME280;57358;51.094;6.760;2023-05-08T00:52:29;101510.47;;;14.84;100.00
70015;BME280;57358;51.094;6.760;2023-05-08T00:54:56;101511.31;;;14.84;100.00
70015;BME280;57358;51.094;6.760;2023-05-08T00:57:23;101519.25;;;14.84;100.00
70015;BME280;57358;51.094;6.760;2023-05-08T00:59:50;101518.41;;;14.84;100.00
70015;BME280;57358;51.094;6.760;2023-05-08T01:02:17;101517.47;;;14.85;100.00
70015;BME280;57358;51.094;6.760;2023-05-08T01:04:44;101520.03;;;14.86;100.00
70015;BME280;57358;51.094;6.760;2023-05-08T01:07:13;101511.13;;;14.87;100.00
70015;BME280;57358;51.094;6.760;2023-05-08T01:09:40;101455.63;;;14.57;100.00
70015;BME280;57358;51.094;6.760;2023-05-08T01:12:16;101460.91;;;14.57;100.00
70015;BME280;57358;51.094;6.760;2023-05-08T01:17:34;101451.53;;;14.51;100.00
70015;BME280;57358;51.094;6.760;2023-05-08T01:25:56;101404.00;;;14.04;100.00
70015;BME280;57358;51.094;6.760;2023-05-08T01:36:33;101530.84;;;14.50;100.00
70015;BME280;57358;51.094;6.760;2023-05-08T01:39:12;101496.31;;;14.21;100.00
70015;BME280;57358;51.094;6.760;2023-05-08T01:41:45;101533.13;;;14.40;100.00
70015;BME280;57358;51.094;6.760;2023-05-08T01:44:20;101481.47;;;14.03;100.00
70015;BME280;57358;51.094;6.760;2023-05-08T01:46:49;101540.22;;;14.40;100.00
70015;BME280;57358;51.094;6.760;2023-05-08T01:49:27;101524.00;;;14.30;100.00
70015;BME280;57358;51.094;6.760;2023-05-08T01:52:02;101519.00;;;14.25;100.00
70015;BME280;57358;51.094;6.760;2023-05-08T01:54:36;101540.28;;;14.38;100.00
70015;BME280;57358;51.094;6.760;2023-05-08T01:57:05;101504.81;;;14.10;100.00
70015;BME280;57358;51.094;6.760;2023-05-08T01:59:35;101505.31;;;14.17;100.00
70015;BME280;57358;51.094;6.760;2023-05-08T02:02:04;101476.31;;;14.01;100.00
70015;BME280;57358;51.094;6.760;2023-05-08T02:04:33;101544.38;;;14.44;100.00
70015;BME280;57358;51.094;6.760;2023-05-08T02:07:00;101528.19;;;14.34;100.00
70015;BME280;57358;51.094;6.760;2023-05-08T02:09:28;101514.47;;;14.27;100.00
70015;BME280;57358;51.094;6.760;2023-05-08T02:11:57;101545.72;;;14.51;100.00
70015;BME280;57358;51.094;6.760;2023-05-08T02:14:27;101499.75;;;14.23;100.00
70015;BME280;57358;51.094;6.760;2023-05-08T02:16:56;101515.31;;;14.28;100.00
70015;BME280;57358;51.094;6.760;2023-05-08T02:19:24;101558.09;;;14.50;100.00
70015;BME280;57358;51.094;6.760;2023-05-08T02:21:54;101561.69;;;14.49;100.00
70015;BME280;57358;51.094;6.760;2023-05-08T02:24:23;101534.66;;;14.28;100.00
70015;BME280;57358;51.094;6.760;2023-05-08T02:26:51;101540.13;;;14.25;100.00
70015;BME280;57358;51.094;6.760;2023-05-08T02:29:21;101567.56;;;14.54;100.00
70015;BME280;57358;51.094;6.760;2023-05-08T02:31:49;101552.56;;;14.55;100.00
70015;BME280;57358;51.094;6.760;2023-05-08T02:34:18;101566.31;;;14.62;100.00
70015;BME280;57358;51.094;6.760;2023-05-08T02:36:46;101528.59;;;14.26;100.00
70015;BME280;57358;51.094;6.760;2023-05-08T02:39:14;101563.38;;;14.50;100.00
70015;BME280;57358;51.094;6.760;2023-05-08T02:41:43;101587.34;;;14.47;100.00
70015;BME280;57358;51.094;6.760;2023-05-08T02:44:11;101444.34;;;13.56;100.00
70015;BME280;57358;51.094;6.760;2023-05-08T02:49:15;101586.88;;;14.55;100.00
70015;BME280;57358;51.094;6.760;2023-05-08T02:51:53;101514.53;;;14.10;100.00
70015;BME280;57358;51.094;6.760;2023-05-08T02:57:07;101516.44;;;14.24;100.00
70015;BME280;57358;51.094;6.760;2023-05-08T02:59:44;101573.69;;;14.55;100.00
70015;BME280;57358;51.094;6.760;2023-05-08T03:02:17;101531.25;;;14.26;100.00
70015;BME280;57358;51.094;6.760;2023-05-08T03:04:55;101549.22;;;14.35;100.00
70015;BME280;57358;51.094;6.760;2023-05-08T03:07:25;101505.78;;;14.09;100.00
70015;BME280;57358;51.094;6.760;2023-05-08T03:10:04;101543.25;;;14.32;100.00
70015;BME280;57358;51.094;6.760;2023-05-08T03:12:32;101561.66;;;14.33;100.00
70015;BME280;57358;51.094;6.760;2023-05-08T03:15:05;101554.22;;;14.24;100.00
70015;BME280;57358;51.094;6.760;2023-05-08T03:17:35;101536.13;;;14.01;100.00
70015;BME280;57358;51.094;6.760;2023-05-08T03:20:04;101555.19;;;14.23;100.00
70015;BME280;57358;51.094;6.760;2023-05-08T03:22:34;101551.44;;;14.27;100.00
70015;BME280;57358;51.094;6.760;2023-05-08T03:25:04;101557.03;;;14.21;100.00
70015;BME280;57358;51.094;6.760;2023-05-08T03:27:33;101547.66;;;14.15;100.00
70015;BME280;57358;51.094;6.760;2023-05-08T03:30:01;101538.00;;;13.99;100.00
70015;BME280;57358;51.094;6.760;2023-05-08T03:32:30;101551.16;;;14.16;100.00
70015;BME280;57358;51.094;6.760;2023-05-08T03:34:58;101555.38;;;14.03;100.00
70015;BME280;57358;51.094;6.760;2023-05-08T03:37:28;101388.59;;;12.96;100.00
70015;BME280;57358;51.094;6.760;2023-05-08T03:39:54;101558.84;;;13.87;100.00
70015;BME280;57358;51.094;6.760;2023-05-08T03:42:24;101478.03;;;13.51;100.00
70015;BME280;57358;51.094;6.760;2023-05-08T03:44:52;101440.66;;;13.08;100.00
70015;BME280;57358;51.094;6.760;2023-05-08T03:47:20;101557.31;;;13.99;100.00
70015;BME280;57358;51.094;6.760;2023-05-08T03:49:48;101511.63;;;13.65;100.00
70015;BME280;57358;51.094;6.760;2023-05-08T03:52:15;101553.13;;;13.79;100.00
70015;BME280;57358;51.094;6.760;2023-05-08T03:54:42;101556.13;;;13.71;100.00
70015;BME280;57358;51.094;6.760;2023-05-08T03:57:08;101559.63;;;13.72;100.00
70015;BME280;57358;51.094;6.760;2023-05-08T03:59:45;101566.31;;;13.62;100.00
70015;BME280;57358;51.094;6.760;2023-05-08T04:02:24;101562.13;;;13.57;100.00
70015;BME280;57358;51.094;6.760;2023-05-08T04:05:00;101520.31;;;13.32;100.00
70015;BME280;57358;51.094;6.760;2023-05-08T04:07:42;101559.16;;;13.46;100.00
70015;BME280;57358;51.094;6.760;2023-05-08T04:10:19;101571.50;;;13.46;100.00
70015;BME280;57358;51.094;6.760;2023-05-08T04:12:56;101455.31;;;12.79;100.00
70015;BME280;57358;51.094;6.760;2023-05-08T04:15:30;101576.59;;;13.49;100.00
70015;BME280;57358;51.094;6.760;2023-05-08T04:18:09;101501.59;;;13.02;100.00
70015;BME280;57358;51.094;6.760;2023-05-08T04:20:40;101506.78;;;13.04;100.00
70015;BME280;57358;51.094;6.760;2023-05-08T04:23:13;101520.38;;;13.13;100.00
70015;BME280;57358;51.094;6.760;2023-05-08T04:25:41;101528.19;;;13.15;100.00
70015;BME280;57358;51.094;6.760;2023-05-08T04:28:09;101541.84;;;13.23;100.00
70015;BME280;57358;51.094;6.760;2023-05-08T04:30:36;101549.81;;;13.22;100.00
70015;BME280;57358;51.094;6.760;2023-05-08T04:33:04;101607.94;;;13.55;100.00
70015;BME280;57358;51.094;6.760;2023-05-08T04:35:32;101577.78;;;13.43;100.00
70015;BME280;57358;51.094;6.760;2023-05-08T04:37:59;101587.94;;;13.51;100.00
70015;BME280;57358;51.094;6.760;2023-05-08T04:40:25;101597.34;;;13.74;100.00
70015;BME280;57358;51.094;6.760;2023-05-08T04:42:52;101541.78;;;13.42;100.00
70015;BME280;57358;51.094;6.760;2023-05-08T04:45:19;101529.50;;;13.24;100.00
70015;BME280;57358;51.094;6.760;2023-05-08T04:47:45;101591.53;;;13.67;100.00
70015;BME280;57358;51.094;6.760;2023-05-08T04:50:12;101595.78;;;13.70;100.00
70015;BME280;57358;51.094;6.760;2023-05-08T04:52:38;101592.06;;;13.74;100.00
70015;BME280;57358;51.094;6.760;2023-05-08T04:55:05;101579.00;;;13.71;100.00
70015;BME280;57358;51.094;6.760;2023-05-08T04:57:32;101594.38;;;13.80;100.00
70015;BME280;57358;51.094;6.760;2023-05-08T04:59:58;101598.56;;;13.84;100.00
70015;BME280;57358;51.094;6.760;2023-05-08T05:02:25;101588.38;;;13.94;100.00
70015;BME280;57358;51.094;6.760;2023-05-08T05:04:52;101543.44;;;13.95;100.00
70015;BME280;57358;51.094;6.760;2023-05-08T05:07:19;101421.63;;;13.87;100.00
70015;BME280;57358;51.094;6.760;2023-05-08T05:09:45;101548.09;;;15.19;100.00
70015;BME280;57358;51.094;6.760;2023-05-08T05:12:12;101590.25;;;16.11;100.00
70015;BME280;57358;51.094;6.760;2023-05-08T05:14:38;101513.06;;;15.60;100.00
70015;BME280;57358;51.094;6.760;2023-05-08T05:17:04;101475.63;;;14.61;100.00
70015;BME280;57358;51.094;6.760;2023-05-08T05:19:31;101590.72;;;15.29;100.00
70015;BME280;57358;51.094;6.760;2023-05-08T05:21:57;101538.88;;;14.80;100.00
70015;BME280;57358;51.094;6.760;2023-05-08T05:24:24;101597.50;;;14.87;100.00
70015;BME280;57358;51.094;6.760;2023-05-08T05:26:51;101592.63;;;14.63;100.00
70015;BME280;57358;51.094;6.760;2023-05-08T05:29:17;101514.78;;;14.05;100.00
70015;BME280;57358;51.094;6.760;2023-05-08T05:31:44;101597.91;;;14.47;100.00
70015;BME280;57358;51.094;6.760;2023-05-08T05:34:10;101553.72;;;14.18;100.00
70015;BME280;57358;51.094;6.760;2023-05-08T05:36:37;101608.13;;;14.53;100.00
70015;BME280;57358;51.094;6.760;2023-05-08T05:39:04;101611.53;;;14.55;100.00
70015;BME280;57358;51.094;6.760;2023-05-08T05:41:30;101607.19;;;14.54;100.00
70015;BME280;57358;51.094;6.760;2023-05-08T05:43:57;101580.81;;;14.37;100.00
70015;BME280;57358;51.094;6.760;2023-05-08T05:46:25;101567.72;;;14.35;100.00
70015;BME280;57358;51.094;6.760;2023-05-08T05:48:57;101538.03;;;14.14;100.00
70015;BME280;57358;51.094;6.760;2023-05-08T05:51:24;101615.91;;;14.72;100.00
70015;BME280;57358;51.094;6.760;2023-05-08T05:53:50;101621.22;;;14.72;100.00
70015;BME280;57358;51.094;6.760;2023-05-08T05:56:17;101619.34;;;14.74;100.00
70015;BME280;57358;51.094;6.760;2023-05-08T05:58:43;101620.28;;;14.73;100.00
70015;BME280;57358;51.094;6.760;2023-05-08T06:01:10;101624.53;;;14.76;100.00
70015;BME280;57358;51.094;6.760;2023-05-08T06:03:37;101593.16;;;14.70;100.00
70015;BME280;57358;51.094;6.760;2023-05-08T06:06:04;101585.94;;;14.73;100.00
70015;BME280;57358;51.094;6.760;2023-05-08T06:08:30;101627.69;;;15.14;100.00
70015;BME280;57358;51.094;6.760;2023-05-08T06:10:56;101568.69;;;14.82;100.00
70015;BME280;57358;51.094;6.760;2023-05-08T06:13:23;101424.19;;;14.21;100.00
70015;BME280;57358;51.094;6.760;2023-05-08T06:15:53;101545.22;;;15.08;100.00
70015;BME280;57358;51.094;6.760;2023-05-08T06:18:21;101595.16;;;15.28;100.00
70015;BME280;57358;51.094;6.760;2023-05-08T06:20:47;101624.16;;;15.46;100.00
70015;BME280;57358;51.094;6.760;2023-05-08T06:23:14;101623.47;;;15.42;100.00
70015;BME280;57358;51.094;6.760;2023-05-08T06:25:40;101623.50;;;15.56;100.00
70015;BME280;57358;51.094;6.760;2023-05-08T06:28:07;101622.78;;;15.69;100.00
70015;BME280;57358;51.094;6.760;2023-05-08T06:30:33;101589.91;;;15.43;100.00
70015;BME280;57358;51.094;6.760;2023-05-08T06:33:00;101621.25;;;15.65;100.00
70015;BME280;57358;51.094;6.760;2023-05-08T06:35:26;101613.91;;;15.86;100.00
70015;BME280;57358;51.094;6.760;2023-05-08T06:37:53;101571.84;;;15.65;100.00
70015;BME280;57358;51.094;6.760;2023-05-08T06:40:19;101604.47;;;16.10;100.00
70015;BME280;57358;51.094;6.760;2023-05-08T06:42:46;101570.59;;;16.15;100.00
70015;BME280;57358;51.094;6.760;2023-05-08T06:45:12;101600.50;;;16.46;100.00
70015;BME280;57358;51.094;6.760;2023-05-08T06:47:39;101597.00;;;16.46;100.00
70015;BME280;57358;51.094;6.760;2023-05-08T06:50:06;101603.13;;;16.46;100.00
70015;BME280;57358;51.094;6.760;2023-05-08T06:52:32;101600.78;;;16.42;100.00
70015;BME280;57358;51.094;6.760;2023-05-08T06:54:59;101571.63;;;16.13;100.00
70015;BME280;57358;51.094;6.760;2023-05-08T06:57:25;101556.22;;;16.05;100.00
70015;BME280;57358;51.094;6.760;2023-05-08T06:59:54;101517.38;;;16.06;100.00
70015;BME280;57358;51.094;6.760;2023-05-08T07:02:21;101610.84;;;16.78;100.00
70015;BME280;57358;51.094;6.760;2023-05-08T07:04:48;101600.44;;;16.75;100.00
70015;BME280;57358;51.094;6.760;2023-05-08T07:07:17;101597.91;;;16.88;100.00
70015;BME280;57358;51.094;6.760;2023-05-08T07:09:43;101598.13;;;16.98;100.00
70015;BME280;57358;51.094;6.760;2023-05-08T07:12:09;101591.22;;;16.95;100.00
70015;BME280;57358;51.094;6.760;2023-05-08T07:14:36;101436.97;;;16.07;100.00
70015;BME280;57358;51.094;6.760;2023-05-08T07:17:03;101579.97;;;16.91;99.39
70015;BME280;57358;51.094;6.760;2023-05-08T07:19:35;101549.31;;;16.73;98.01
70015;BME280;57358;51.094;6.760;2023-05-08T07:22:01;101579.56;;;16.98;98.47
70015;BME280;57358;51.094;6.760;2023-05-08T07:24:28;101470.97;;;16.42;98.39
70015;BME280;57358;51.094;6.760;2023-05-08T07:26:55;101538.72;;;16.73;97.76
70015;BME280;57358;51.094;6.760;2023-05-08T07:29:21;101590.16;;;17.12;98.02
70015;BME280;57358;51.094;6.760;2023-05-08T07:31:47;101591.53;;;17.18;97.48
70015;BME280;57358;51.094;6.760;2023-05-08T07:34:14;101523.13;;;16.95;96.85
70015;BME280;57358;51.094;6.760;2023-05-08T07:36:41;101591.94;;;17.51;96.51
70015;BME280;57358;51.094;6.760;2023-05-08T07:39:07;101557.03;;;17.70;95.40
70015;BME280;57358;51.094;6.760;2023-05-08T07:41:34;101564.50;;;18.04;92.89
70015;BME280;57358;51.094;6.760;2023-05-08T07:44:02;101571.03;;;18.49;90.65
70015;BME280;57358;51.094;6.760;2023-05-08T07:46:28;101540.34;;;18.69;87.22
70015;BME280;57358;51.094;6.760;2023-05-08T07:48:55;101524.19;;;18.72;85.92
70015;BME280;57358;51.094;6.760;2023-05-08T07:51:22;101465.44;;;18.51;85.56
70015;BME280;57358;51.094;6.760;2023-05-08T07:53:48;101491.75;;;18.91;84.45
70015;BME280;57358;51.094;6.760;2023-05-08T07:56:16;101510.28;;;19.28;82.72
70015;BME280;57358;51.094;6.760;2023-05-08T07:58:44;101499.91;;;19.48;81.09
70015;BME280;57358;51.094;6.760;2023-05-08T08:01:13;101429.56;;;19.28;80.50
70015;BME280;57358;51.094;6.760;2023-05-08T08:03:39;101468.00;;;19.70;79.04
70015;BME280;57358;51.094;6.760;2023-05-08T08:06:06;101453.47;;;19.86;77.71
70015;BME280;57358;51.094;6.760;2023-05-08T08:08:32;101385.66;;;19.33;76.11
70015;BME280;57358;51.094;6.760;2023-05-08T08:10:59;101443.38;;;19.44;78.34
70015;BME280;57358;51.094;6.760;2023-05-08T08:13:28;101367.28;;;19.19;77.74
70015;BME280;57358;51.094;6.760;2023-05-08T08:15:55;101424.16;;;19.52;77.07
70015;BME280;57358;51.094;6.760;2023-05-08T08:18:22;101432.53;;;19.59;77.20
70015;BME280;57358;51.094;6.760;2023-05-08T08:20:48;101419.53;;;19.31;78.56
70015;BME280;57358;51.094;6.760;2023-05-08T08:23:16;101354.06;;;18.95;78.36
70015;BME280;57358;51.094;6.760;2023-05-08T08:25:42;101369.81;;;19.21;78.04
70015;BME280;57358;51.094;6.760;2023-05-08T08:28:08;101371.84;;;19.06;78.87
70015;BME280;57358;51.094;6.760;2023-05-08T08:30:35;101429.00;;;19.69;79.43
70015;BME280;57358;51.094;6.760;2023-05-08T08:33:01;101390.41;;;19.52;78.67
70015;BME280;57358;51.094;6.760;2023-05-08T08:35:28;101284.31;;;19.03;78.32
70015;BME280;57358;51.094;6.760;2023-05-08T08:37:55;101364.22;;;20.03;74.63
70015;BME280;57358;51.094;6.760;2023-05-08T08:40:22;101317.50;;;19.99;73.58
70015;BME280;57358;51.094;6.760;2023-05-08T08:42:48;101328.16;;;19.99;72.74
70015;BME280;57358;51.094;6.760;2023-05-08T08:45:15;101369.78;;;20.43;73.42
70015;BME280;57358;51.094;6.760;2023-05-08T08:47:44;101356.16;;;20.46;72.19
70015;BME280;57358;51.094;6.760;2023-05-08T08:50:13;101336.50;;;20.26;71.61
70015;BME280;57358;51.094;6.760;2023-05-08T08:52:50;101353.25;;;20.49;72.58
70015;BME280;57358;51.094;6.760;2023-05-08T08:55:21;101300.78;;;20.29;71.67
70015;BME280;57358;51.094;6.760;2023-05-08T08:57:58;101328.16;;;20.94;69.74
70015;BME280;57358;51.094;6.760;2023-05-08T09:00:29;101316.03;;;21.11;68.96
70015;BME280;57358;51.094;6.760;2023-05-08T09:02:57;101302.19;;;20.96;68.71
70015;BME280;57358;51.094;6.760;2023-05-08T09:05:24;101261.19;;;20.66;68.45
70015;BME280;57358;51.094;6.760;2023-05-08T09:07:54;101268.44;;;20.85;68.68
70015;BME280;57358;51.094;6.760;2023-05-08T09:10:23;101281.19;;;21.43;66.69
70015;BME280;57358;51.094;6.760;2023-05-08T09:12:49;101263.03;;;21.37;66.50
70015;BME280;57358;51.094;6.760;2023-05-08T09:15:16;101251.59;;;21.25;66.24
70015;BME280;57358;51.094;6.760;2023-05-08T09:17:43;101267.06;;;21.72;65.58
70015;BME280;57358;51.094;6.760;2023-05-08T09:20:10;101222.63;;;21.71;65.06
70015;BME280;57358;51.094;6.760;2023-05-08T09:22:37;101173.50;;;21.23;65.13
70015;BME280;57358;51.094;6.760;2023-05-08T09:25:04;101160.47;;;20.89;65.52
70015;BME280;57358;51.094;6.760;2023-05-08T09:27:31;101229.22;;;21.07;66.65
70015;BME280;57358;51.094;6.760;2023-05-08T09:30:02;101240.31;;;21.12;66.50
70015;BME280;57358;51.094;6.760;2023-05-08T09:32:30;101209.47;;;20.88;66.74
70015;BME280;57358;51.094;6.760;2023-05-08T09:34:57;101249.09;;;20.62;68.05
70015;BME280;57358;51.094;6.760;2023-05-08T09:37:25;101280.50;;;20.80;69.32
70015;BME280;57358;51.094;6.760;2023-05-08T09:39:53;101207.34;;;20.82;68.47
70015;BME280;57358;51.094;6.760;2023-05-08T09:42:20;101180.28;;;20.97;66.59
70015;BME280;57358;51.094;6.760;2023-05-08T09:44:48;101245.13;;;21.98;66.12
70015;BME280;57358;51.094;6.760;2023-05-08T09:47:16;101174.91;;;22.15;63.61
70015;BME280;57358;51.094;6.760;2023-05-08T09:50:10;101198.69;;;22.18;63.51
70015;BME280;57358;51.094;6.760;2023-05-08T09:52:37;101178.88;;;22.11;63.61
70015;BME280;57358;51.094;6.760;2023-05-08T09:55:08;101147.84;;;21.71;63.17
70015;BME280;57358;51.094;6.760;2023-05-08T09:57:39;101198.03;;;21.77;63.50
70015;BME280;57358;51.094;6.760;2023-05-08T10:00:08;101220.50;;;22.23;64.11
70015;BME280;57358;51.094;6.760;2023-05-08T10:02:36;101060.63;;;21.41;62.59
70015;BME280;57358;51.094;6.760;2023-05-08T10:05:04;101101.22;;;20.96;63.82
70015;BME280;57358;51.094;6.760;2023-05-08T10:07:47;101240.91;;;22.24;63.94
70015;BME280;57358;51.094;6.760;2023-05-08T10:10:21;101142.31;;;21.92;62.01
70015;BME280;57358;51.094;6.760;2023-05-08T10:12:48;101173.94;;;22.06;61.63
70015;BME280;57358;51.094;6.760;2023-05-08T10:15:15;101130.25;;;21.59;62.04
70015;BME280;57358;51.094;6.760;2023-05-08T10:17:43;101044.38;;;20.95;61.82
70015;BME280;57358;51.094;6.760;2023-05-08T10:20:18;101098.03;;;21.11;62.47
70015;BME280;57358;51.094;6.760;2023-05-08T10:22:47;101232.09;;;21.35;63.90
70015;BME280;57358;51.094;6.760;2023-05-08T10:25:19;101214.72;;;21.50;63.49
70015;BME280;57358;51.094;6.760;2023-05-08T10:27:54;101156.94;;;21.39;61.86
70015;BME280;57358;51.094;6.760;2023-05-08T10:30:24;101213.19;;;22.06;61.06
70015;BME280;57358;51.094;6.760;2023-05-08T10:32:52;101206.97;;;22.25;61.20
70015;BME280;57358;51.094;6.760;2023-05-08T10:35:24;101178.44;;;22.16;60.02
70015;BME280;57358;51.094;6.760;2023-05-08T10:37:51;101098.59;;;21.93;58.43
70015;BME280;57358;51.094;6.760;2023-05-08T10:40:19;101151.59;;;21.98;58.93
70015;BME280;57358;51.094;6.760;2023-05-08T10:42:46;101184.09;;;21.74;59.57
70015;BME280;57358;51.094;6.760;2023-05-08T10:45:13;101216.72;;;21.58;60.12
70015;BME280;57358;51.094;6.760;2023-05-08T10:47:47;101236.84;;;21.81;60.40
70015;BME280;57358;51.094;6.760;2023-05-08T10:53:12;101253.41;;;21.56;61.86
70015;BME280;57358;51.094;6.760;2023-05-08T10:55:44;101203.41;;;21.37;60.87
70015;BME280;57358;51.094;6.760;2023-05-08T11:03:19;101281.31;;;22.88;58.53
70015;BME280;57358;51.094;6.760;2023-05-08T11:05:59;101186.91;;;22.58;57.36
70015;BME280;57358;51.094;6.760;2023-05-08T11:08:27;101231.91;;;22.06;59.63
70015;BME280;57358;51.094;6.760;2023-05-08T11:13:37;101255.38;;;21.83;60.49
70015;BME280;57358;51.094;6.760;2023-05-08T11:16:04;101280.00;;;21.67;61.33
70015;BME280;57358;51.094;6.760;2023-05-08T11:18:32;101261.13;;;21.59;61.04
70015;BME280;57358;51.094;6.760;2023-05-08T11:21:05;101289.22;;;21.63;61.08
70015;BME280;57358;51.094;6.760;2023-05-08T11:23:39;101277.84;;;21.61;61.32
70015;BME280;57358;51.094;6.760;2023-05-08T11:26:12;101254.53;;;21.73;60.73
70015;BME280;57358;51.094;6.760;2023-05-08T11:28:56;101332.56;;;21.76;62.09
70015;BME280;57358;51.094;6.760;2023-05-08T11:31:22;101289.13;;;21.74;60.96
70015;BME280;57358;51.094;6.760;2023-05-08T11:33:49;101319.69;;;21.91;62.06
70015;BME280;57358;51.094;6.760;2023-05-08T11:36:17;101266.34;;;22.19;59.51
70015;BME280;57358;51.094;6.760;2023-05-08T11:39:06;101271.16;;;22.15;60.00
70015;BME280;57358;51.094;6.760;2023-05-08T11:41:38;101299.41;;;22.57;59.74
70015;BME280;57358;51.094;6.760;2023-05-08T11:44:21;101235.81;;;22.41;59.27
70015;BME280;57358;51.094;6.760;2023-05-08T11:46:52;101236.47;;;22.62;59.03
70015;BME280;57358;51.094;6.760;2023-05-08T11:49:22;101255.09;;;22.92;57.59
70015;BME280;57358;51.094;6.760;2023-05-08T11:51:53;101256.84;;;22.73;58.25
70015;BME280;57358;51.094;6.760;2023-05-08T11:54:24;101269.81;;;23.15;57.37
70015;BME280;57358;51.094;6.760;2023-05-08T11:56:51;101253.84;;;23.69;56.16
70015;BME280;57358;51.094;6.760;2023-05-08T11:59:21;101115.72;;;23.57;52.43
70015;BME280;57358;51.094;6.760;2023-05-08T12:01:49;101157.06;;;23.36;54.28
70015;BME280;57358;51.094;6.760;2023-05-08T12:04:42;101200.31;;;23.41;54.48
70015;BME280;57358;51.094;6.760;2023-05-08T12:07:09;101117.56;;;22.75;54.87
70015;BME280;57358;51.094;6.760;2023-05-08T12:09:36;101137.91;;;22.10;56.54
70015;BME280;57358;51.094;6.760;2023-05-08T12:12:03;101246.22;;;22.44;57.77
70015;BME280;57358;51.094;6.760;2023-05-08T12:14:30;101239.22;;;22.33;58.09
70015;BME280;57358;51.094;6.760;2023-05-08T12:16:56;101238.56;;;22.68;57.61
70015;BME280;57358;51.094;6.760;2023-05-08T12:19:23;101265.63;;;22.56;58.27
70015;BME280;57358;51.094;6.760;2023-05-08T12:21:49;101257.53;;;22.75;57.71
70015;BME280;57358;51.094;6.760;2023-05-08T12:24:16;101238.63;;;22.86;57.00
70015;BME280;57358;51.094;6.760;2023-05-08T12:26:48;101263.22;;;23.09;56.66
70015;BME280;57358;51.094;6.760;2023-05-08T12:29:17;101221.13;;;23.29;55.15
70015;BME280;57358;51.094;6.760;2023-05-08T12:31:44;101168.59;;;22.91;55.42
70015;BME280;57358;51.094;6.760;2023-05-08T12:34:11;101230.88;;;23.21;55.26
70015;BME280;57358;51.094;6.760;2023-05-08T12:36:37;101223.91;;;23.00;56.20
70015;BME280;57358;51.094;6.760;2023-05-08T12:39:11;101217.72;;;22.62;56.53
70015;BME280;57358;51.094;6.760;2023-05-08T12:41:50;101278.59;;;23.07;57.16
70015;BME280;57358;51.094;6.760;2023-05-08T12:44:24;101256.69;;;23.22;56.54
70015;BME280;57358;51.094;6.760;2023-05-08T12:46:53;101241.00;;;23.27;55.78
70015;BME280;57358;51.094;6.760;2023-05-08T12:49:26;101244.44;;;23.37;56.04
70015;BME280;57358;51.094;6.760;2023-05-08T12:52:04;101240.28;;;23.53;55.25
70015;BME280;57358;51.094;6.760;2023-05-08T12:54:33;101183.09;;;23.44;54.96
70015;BME280;57358;51.094;6.760;2023-05-08T12:56:59;101263.00;;;23.94;55.50
70015;BME280;57358;51.094;6.760;2023-05-08T12:59:31;101270.19;;;24.29;54.07
70015;BME280;57358;51.094;6.760;2023-05-08T13:01:58;101235.41;;;24.02;54.24
70015;BME280;57358;51.094;6.760;2023-05-08T13:04:24;101267.34;;;24.13;54.47
70015;BME280;57358;51.094;6.760;2023-05-08T13:06:57;101173.75;;;23.66;54.27
70015;BME280;57358;51.094;6.760;2023-05-08T13:09:24;101240.59;;;23.49;56.13
70015;BME280;57358;51.094;6.760;2023-05-08T13:11:52;101261.47;;;23.46;56.26
70015;BME280;57358;51.094;6.760;2023-05-08T13:14:19;101187.72;;;22.96;55.78
70015;BME280;57358;51.094;6.760;2023-05-08T13:16:46;101210.63;;;22.43;57.38
70015;BME280;57358;51.094;6.760;2023-05-08T13:19:17;101289.41;;;22.59;58.60
70015;BME280;57358;51.094;6.760;2023-05-08T13:21:44;101207.84;;;22.25;58.48
70015;BME280;57358;51.094;6.760;2023-05-08T13:24:13;101299.41;;;22.57;59.76
70015;BME280;57358;51.094;6.760;2023-05-08T13:26:40;101287.84;;;22.66;59.40